Time;durP1;ratioP1;P1;durP2;ratioP2;P2;SDS_P1;SDS_P2;PMS_P1;PMS_P2;Temp;Humidity;BMP_temperature;BMP_pressure;BME280_temperature;BME280_humidity;BME280_pressure;Samples;Min_cycle;Max_cycle;Signal;HPM_P1;HPM_P2
2023/11/10 00:01:26;;;;;;;7.88;1.42;;;;;;;9.63;100.00;99655.03;5260627;28;20050;-71
2023/11/10 00:03:56;;;;;;;9.20;1.67;;;;;;;9.58;100.00;99655.59;5263154;28;20529;-71
2023/11/10 00:06:27;;;;;;;3.65;1.63;;;;;;;9.48;100.00;99642.50;5254427;28;20035;-71
2023/11/10 00:08:59;;;;;;;11.15;1.80;;;;;;;9.59;100.00;99650.09;5258928;28;20028;-71
2023/11/10 00:11:29;;;;;;;3.53;1.27;;;;;;;9.64;100.00;99652.19;5257766;28;20028;-71
2023/11/10 00:14:00;;;;;;;7.97;1.98;;;;;;;9.77;100.00;99640.78;5259388;28;20034;-71
2023/11/10 00:16:30;;;;;;;9.85;2.40;;;;;;;9.59;100.00;99642.03;5255674;28;20088;-71
2023/11/10 00:19:02;;;;;;;6.60;1.67;;;;;;;9.66;100.00;99643.97;5257605;28;20679;-71
2023/11/10 00:21:36;;;;;;;7.68;2.67;;;;;;;9.76;100.00;99644.47;5262825;28;20030;-71
2023/11/10 00:24:06;;;;;;;8.85;1.95;;;;;;;9.74;100.00;99646.50;5256438;28;20032;-71
2023/11/10 00:26:37;;;;;;;6.13;1.40;;;;;;;9.61;100.00;99641.84;5252566;28;20044;-71
2023/11/10 00:29:08;;;;;;;5.57;1.50;;;;;;;9.73;100.00;99636.81;5261368;28;20484;-71
2023/11/10 00:31:38;;;;;;;6.97;1.85;;;;;;;9.80;100.00;99646.59;5259804;28;20795;-71
2023/11/10 00:34:09;;;;;;;7.28;1.80;;;;;;;9.81;100.00;99634.84;5257178;28;20599;-71
2023/11/10 00:36:41;;;;;;;3.90;1.38;;;;;;;9.66;100.00;99639.44;5262504;28;20032;-71
2023/11/10 00:39:12;;;;;;;2.95;1.17;;;;;;;9.67;100.00;99640.25;5248664;28;20096;-71
2023/11/10 00:41:44;;;;;;;6.75;1.30;;;;;;;9.73;100.00;99644.84;5261024;28;20111;-71
2023/11/10 00:44:15;;;;;;;8.75;1.80;;;;;;;9.77;100.00;99632.75;5257968;28;20016;-71
2023/11/10 00:46:45;;;;;;;4.22;1.60;;;;;;;9.77;100.00;99632.75;5257306;28;20031;-71
2023/11/10 00:49:16;;;;;;;5.03;1.50;;;;;;;9.74;100.00;99638.47;5254561;28;20020;-71
2023/11/10 00:51:48;;;;;;;4.95;1.10;;;;;;;9.58;100.00;99637.69;5255117;28;20035;-71
2023/11/10 00:54:19;;;;;;;3.45;1.38;;;;;;;9.56;100.00;99637.06;5256996;28;20043;-71
2023/11/10 00:56:50;;;;;;;6.45;1.58;;;;;;;9.65;100.00;99639.63;5253868;28;20036;-71
2023/11/10 00:59:20;;;;;;;5.88;1.23;;;;;;;9.70;100.00;99631.84;5259270;28;20030;-71
2023/11/10 01:01:51;;;;;;;7.80;2.38;;;;;;;9.61;100.00;99636.50;5257454;28;20397;-71
2023/11/10 01:04:21;;;;;;;5.22;1.42;;;;;;;9.58;100.00;99632.31;5255788;28;20035;-71
2023/11/10 01:06:52;;;;;;;6.57;1.42;;;;;;;9.71;100.00;99644.22;5254001;28;20028;-71
2023/11/10 01:09:22;;;;;;;6.88;1.88;;;;;;;9.58;100.00;99640.38;5247971;28;20070;-71
2023/11/10 01:11:53;;;;;;;5.38;1.10;;;;;;;9.49;100.00;99641.53;5250354;28;20020;-71
2023/11/10 01:14:23;;;;;;;6.43;0.98;;;;;;;9.59;100.00;99636.69;5257440;28;20024;-71
2023/11/10 01:16:55;;;;;;;5.15;1.00;;;;;;;9.35;100.00;99637.03;5256098;28;20035;-71
2023/11/10 01:19:26;;;;;;;7.18;1.50;;;;;;;9.32;100.00;99618.66;5256188;28;20024;-71
2023/11/10 01:21:57;;;;;;;4.00;0.90;;;;;;;9.25;100.00;99633.81;5259432;28;20032;-71
2023/11/10 01:24:27;;;;;;;3.85;1.10;;;;;;;9.27;100.00;99621.06;5252855;28;20481;-71
2023/11/10 01:26:59;;;;;;;6.22;1.83;;;;;;;9.29;100.00;99624.41;5252924;28;20111;-71
2023/11/10 01:29:29;;;;;;;7.97;1.75;;;;;;;9.23;100.00;99617.91;5264872;28;20015;-71
2023/11/10 01:32:00;;;;;;;6.50;1.73;;;;;;;9.15;100.00;99623.41;5257564;28;20081;-71
2023/11/10 01:34:30;;;;;;;2.72;1.15;;;;;;;9.12;100.00;99618.41;5254772;28;20389;-71
2023/11/10 01:37:01;;;;;;;7.15;1.17;;;;;;;9.09;100.00;99624.16;5257633;28;20028;-71
2023/11/10 01:39:33;;;;;;;3.58;1.48;;;;;;;9.08;100.00;99615.28;5256687;28;20040;-71
2023/11/10 01:42:04;;;;;;;9.55;1.42;;;;;;;9.07;100.00;99615.47;5251154;28;20039;-70
2023/11/10 01:44:35;;;;;;;6.47;1.20;;;;;;;9.03;100.00;99620.34;5254359;28;20036;-71
2023/11/10 01:47:07;;;;;;;7.25;1.58;;;;;;;9.04;100.00;99619.34;5248409;28;20503;-71
2023/11/10 01:49:38;;;;;;;9.07;1.67;;;;;;;9.05;100.00;99607.63;5260107;28;20024;-71
2023/11/10 01:52:09;;;;;;;7.30;1.55;;;;;;;8.94;100.00;99610.78;5257500;28;20390;-71
2023/11/10 01:54:39;;;;;;;7.00;2.75;;;;;;;8.88;100.00;99618.69;5258481;28;20035;-71
2023/11/10 01:57:11;;;;;;;5.97;1.42;;;;;;;8.98;100.00;99614.72;5256152;28;20032;-71
2023/11/10 01:59:46;;;;;;;8.60;1.40;;;;;;;9.04;100.00;99614.00;5254643;28;20093;-71
2023/11/10 02:02:17;;;;;;;3.38;1.38;;;;;;;9.17;100.00;99613.31;5262543;28;20035;-71
2023/11/10 02:04:48;;;;;;;5.70;1.50;;;;;;;9.15;100.00;99609.19;5260904;28;20036;-71
2023/11/10 02:07:18;;;;;;;10.55;2.50;;;;;;;9.14;100.00;99613.72;5259462;28;20056;-71
2023/11/10 02:09:49;;;;;;;5.57;1.35;;;;;;;9.15;100.00;99615.38;5263968;28;20027;-71
2023/11/10 02:12:21;;;;;;;5.20;1.15;;;;;;;9.12;100.00;99604.22;5262635;28;20034;-71
2023/11/10 02:14:51;;;;;;;5.40;1.60;;;;;;;9.28;100.00;99615.50;5257624;28;20033;-71
2023/11/10 02:17:22;;;;;;;3.35;0.90;;;;;;;9.12;100.00;99609.56;5255503;28;20492;-71
2023/11/10 02:19:52;;;;;;;5.82;1.00;;;;;;;9.17;100.00;99605.28;5258255;28;20032;-71
2023/11/10 02:22:23;;;;;;;3.63;1.10;;;;;;;9.14;100.00;99613.72;5259697;28;20399;-71
2023/11/10 02:24:56;;;;;;;4.32;0.93;;;;;;;9.08;100.00;99609.91;5258398;28;20098;-71
2023/11/10 02:27:26;;;;;;;4.80;1.05;;;;;;;9.09;100.00;99613.44;5253168;28;20027;-71
2023/11/10 02:29:56;;;;;;;5.15;1.40;;;;;;;9.13;100.00;99616.56;5265754;28;20109;-71
2023/11/10 02:32:27;;;;;;;2.50;0.85;;;;;;;8.97;100.00;99607.72;5259191;28;20384;-71
2023/11/10 02:34:58;;;;;;;8.18;1.33;;;;;;;8.96;100.00;99608.75;5261711;28;20542;-71
2023/11/10 02:37:29;;;;;;;7.88;1.42;;;;;;;9.02;100.00;99613.34;5265978;28;20051;-71
2023/11/10 02:39:59;;;;;;;4.95;1.10;;;;;;;9.08;100.00;99609.09;5260477;28;20032;-71
2023/11/10 02:42:30;;;;;;;7.55;1.38;;;;;;;9.02;100.00;99610.66;5258656;28;20027;-71
2023/11/10 02:45:01;;;;;;;2.90;0.90;;;;;;;9.06;100.00;99611.13;5255829;28;20028;-71
2023/11/10 02:47:33;;;;;;;3.25;1.00;;;;;;;9.04;100.00;99614.00;5251111;28;20016;-71
2023/11/10 02:50:05;;;;;;;3.08;0.88;;;;;;;9.00;100.00;99607.38;5259663;28;20046;-71
2023/11/10 02:52:35;;;;;;;4.72;1.20;;;;;;;8.94;100.00;99613.47;5252644;28;20501;-71
2023/11/10 02:55:06;;;;;;;3.53;0.85;;;;;;;8.76;100.00;99632.53;5258783;28;20028;-71
2023/11/10 02:57:37;;;;;;;3.67;0.70;;;;;;;8.88;100.00;99616.84;5251886;28;20044;-71
2023/11/10 03:00:09;;;;;;;2.63;0.80;;;;;;;8.93;100.00;99616.31;5255309;28;20032;-71
2023/11/10 03:02:40;;;;;;;6.88;1.27;;;;;;;8.95;100.00;99622.31;5266341;28;20481;-71
2023/11/10 03:05:11;;;;;;;5.18;0.90;;;;;;;8.87;100.00;99617.88;5256361;28;20023;-71
2023/11/10 03:07:45;;;;;;;5.50;0.93;;;;;;;8.98;100.00;99616.56;5269767;28;20024;-71
2023/11/10 03:10:16;;;;;;;7.95;1.08;;;;;;;8.96;100.00;99615.94;5253025;28;20017;-71
2023/11/10 03:12:48;;;;;;;6.70;2.72;;;;;;;8.99;100.00;99621.75;5259847;28;20118;-71
2023/11/10 03:15:28;;;;;;;3.58;1.30;;;;;;;9.00;100.00;99628.75;5259144;28;20021;-71
2023/11/10 03:17:58;;;;;;;3.90;1.00;;;;;;;9.01;100.00;99617.03;5260122;28;20397;-71
2023/11/10 03:20:29;;;;;;;5.22;1.30;;;;;;;8.96;100.00;99629.31;5257838;28;20028;-71
2023/11/10 03:23:00;;;;;;;6.90;1.20;;;;;;;8.93;100.00;99616.31;5262440;28;20062;-71
2023/11/10 03:25:30;;;;;;;3.75;1.20;;;;;;;8.91;100.00;99613.81;5255177;28;20107;-71
2023/11/10 03:28:02;;;;;;;5.18;1.20;;;;;;;8.94;100.00;99624.16;5257914;28;20146;-71
2023/11/10 03:30:33;;;;;;;4.32;1.10;;;;;;;8.87;100.00;99615.19;5251369;28;20120;-71
2023/11/10 03:33:03;;;;;;;8.73;1.80;;;;;;;8.88;100.00;99624.06;5251659;28;20060;-71
2023/11/10 03:35:34;;;;;;;6.00;1.13;;;;;;;8.85;100.00;99625.25;5254962;28;20024;-71
2023/11/10 03:38:05;;;;;;;6.63;1.42;;;;;;;8.92;100.00;99625.34;5259804;28;20059;-71
2023/11/10 03:40:36;;;;;;;7.93;1.48;;;;;;;8.88;100.00;99624.88;5255875;28;20051;-71
2023/11/10 03:43:06;;;;;;;3.78;1.20;;;;;;;8.78;100.00;99617.13;5274155;28;20417;-71
2023/11/10 03:45:37;;;;;;;5.38;1.42;;;;;;;8.81;100.00;99608.75;5264075;28;20062;-71
2023/11/10 03:48:07;;;;;;;4.18;1.02;;;;;;;8.70;100.00;99608.41;5264791;28;20130;-71
2023/11/10 03:50:40;;;;;;;6.90;1.15;;;;;;;8.74;100.00;99609.69;5266449;28;20106;-71
2023/11/10 03:53:10;;;;;;;7.03;1.40;;;;;;;8.67;100.00;99614.09;5255777;28;20028;-71
2023/11/10 03:55:41;;;;;;;5.40;1.23;;;;;;;8.64;100.00;99617.97;5257312;28;20390;-71
2023/11/10 03:58:11;;;;;;;2.70;1.10;;;;;;;8.67;100.00;99619.44;5253345;28;20021;-70
2023/11/10 04:00:42;;;;;;;6.30;1.10;;;;;;;8.72;100.00;99625.06;5263669;28;20029;-70
2023/11/10 04:03:12;;;;;;;3.47;1.30;;;;;;;8.58;100.00;99618.69;5257812;28;20024;-71
2023/11/10 04:05:44;;;;;;;5.47;1.45;;;;;;;8.63;100.00;99626.16;5253292;28;20032;-71
2023/11/10 04:08:15;;;;;;;6.05;0.95;;;;;;;8.56;100.00;99624.22;5259901;28;20104;-71
2023/11/10 04:10:47;;;;;;;7.97;1.27;;;;;;;8.55;100.00;99637.78;5271723;28;20031;-71
2023/11/10 04:13:17;;;;;;;5.22;1.23;;;;;;;8.55;100.00;99641.28;5257018;28;20081;-71
2023/11/10 04:15:48;;;;;;;7.13;1.05;;;;;;;8.55;100.00;99625.25;5253095;28;20478;-71
2023/11/10 04:18:21;;;;;;;6.03;1.30;;;;;;;8.51;100.00;99633.81;5255894;28;20073;-71
2023/11/10 04:20:51;;;;;;;10.80;2.45;;;;;;;8.45;100.00;99630.03;5258973;28;20036;-71
2023/11/10 04:23:22;;;;;;;6.10;1.00;;;;;;;8.50;100.00;99627.63;5262036;28;20119;-71
2023/11/10 04:25:52;;;;;;;10.35;3.17;;;;;;;8.47;100.00;99636.00;5257334;28;20020;-73
2023/11/10 04:28:24;;;;;;;6.95;1.25;;;;;;;8.46;100.00;99631.69;5258808;28;20028;-73
2023/11/10 04:30:54;;;;;;;9.23;1.10;;;;;;;8.50;100.00;99632.16;5262788;28;20024;-73
2023/11/10 04:33:25;;;;;;;11.30;1.33;;;;;;;8.47;100.00;99622.66;5252325;28;20039;-73
2023/11/10 04:35:55;;;;;;;9.30;1.38;;;;;;;8.37;100.00;99630.09;5260039;28;20077;-71
2023/11/10 04:38:26;;;;;;;8.88;1.20;;;;;;;8.29;100.00;99624.81;5250644;28;20027;-71
2023/11/10 04:40:57;;;;;;;6.05;1.58;;;;;;;8.20;100.00;99620.56;5255135;28;20024;-71
2023/11/10 04:43:27;;;;;;;4.82;1.20;;;;;;;8.17;100.00;99619.06;5255085;28;20028;-71
2023/11/10 04:45:58;;;;;;;7.25;1.52;;;;;;;8.24;100.00;99619.19;5256825;28;20024;-71
2023/11/10 04:48:28;;;;;;;10.65;1.17;;;;;;;8.21;100.00;99623.03;5251269;28;20412;-71
2023/11/10 04:51:03;;;;;;;8.32;1.35;;;;;;;8.17;100.00;99615.56;5258705;28;20408;-71
2023/11/10 04:53:33;;;;;;;7.78;1.10;;;;;;;8.01;100.00;99630.72;5254391;28;20024;-71
2023/11/10 04:56:04;;;;;;;9.57;1.30;;;;;;;8.13;100.00;99636.44;5252650;28;20031;-71
2023/11/10 04:58:35;;;;;;;4.68;1.05;;;;;;;8.20;100.00;99637.41;5253921;28;20157;-71
2023/11/10 05:01:07;;;;;;;7.38;1.30;;;;;;;8.19;100.00;99632.25;5256000;28;20444;-71
2023/11/10 05:03:38;;;;;;;6.50;1.20;;;;;;;8.09;100.00;99637.84;5259612;28;20086;-71
2023/11/10 05:06:09;;;;;;;12.43;1.35;;;;;;;7.98;100.00;99633.75;5261316;28;20028;-71
2023/11/10 05:08:39;;;;;;;5.38;1.08;;;;;;;8.04;100.00;99634.88;5252002;28;20414;-71
2023/11/10 05:11:11;;;;;;;10.13;1.52;;;;;;;8.01;100.00;99632.56;5256904;28;20025;-71
2023/11/10 05:13:42;;;;;;;7.05;1.35;;;;;;;8.01;100.00;99636.06;5268815;28;20024;-71
2023/11/10 05:16:12;;;;;;;9.95;1.20;;;;;;;7.88;100.00;99635.84;5255607;28;20100;-71
2023/11/10 05:18:43;;;;;;;8.02;1.10;;;;;;;7.89;100.00;99629.50;5262969;28;20531;-71
2023/11/10 05:21:14;;;;;;;6.35;1.23;;;;;;;7.87;100.00;99644.84;5264780;28;20054;-71
2023/11/10 05:23:44;;;;;;;3.58;0.80;;;;;;;8.05;100.00;99642.72;5265668;28;20024;-71
2023/11/10 05:26:15;;;;;;;8.30;0.85;;;;;;;8.13;100.00;99654.31;5258883;28;20028;-71
2023/11/10 05:28:45;;;;;;;7.03;1.20;;;;;;;8.23;100.00;99638.88;5256756;28;20020;-71
2023/11/10 05:31:16;;;;;;;13.45;1.52;;;;;;;8.20;100.00;99642.75;5259045;28;20024;-71
2023/11/10 05:33:46;;;;;;;5.18;1.27;;;;;;;8.10;100.00;99647.50;5261030;28;20105;-71
2023/11/10 05:36:17;;;;;;;9.82;1.52;;;;;;;8.17;100.00;99648.44;5261789;28;20481;-71
2023/11/10 05:38:49;;;;;;;5.18;1.08;;;;;;;8.09;100.00;99634.34;5259787;28;20390;-70
2023/11/10 05:41:19;;;;;;;7.20;1.30;;;;;;;8.16;100.00;99632.59;5263261;28;20389;-71
2023/11/10 05:43:50;;;;;;;7.80;1.10;;;;;;;8.12;100.00;99641.97;5257320;28;20028;-71
2023/11/10 05:46:21;;;;;;;12.95;2.55;;;;;;;8.20;100.00;99642.75;5255382;28;20107;-71
2023/11/10 05:48:52;;;;;;;5.68;1.42;;;;;;;8.11;100.00;99641.16;5253825;28;20025;-71
2023/11/10 05:51:22;;;;;;;8.38;1.40;;;;;;;8.20;100.00;99658.78;5258587;28;20053;-71
2023/11/10 05:53:53;;;;;;;5.03;1.70;;;;;;;8.18;100.00;99643.94;5259496;28;20024;-71
2023/11/10 05:56:24;;;;;;;11.65;1.80;;;;;;;8.20;100.00;99633.91;5261939;28;20059;-71
2023/11/10 05:58:55;;;;;;;8.63;1.52;;;;;;;8.22;100.00;99637.22;5259268;28;20078;-71
2023/11/10 06:01:25;;;;;;;12.65;2.20;;;;;;;8.29;100.00;99636.34;5259193;28;20032;-71
2023/11/10 06:03:56;;;;;;;9.93;1.90;;;;;;;8.23;100.00;99637.06;5255675;28;20028;-71
2023/11/10 06:06:28;;;;;;;7.78;1.60;;;;;;;8.26;100.00;99642.03;5257036;28;20024;-71
2023/11/10 06:08:59;;;;;;;11.25;1.83;;;;;;;8.26;100.00;99646.53;5246816;28;20035;-71
2023/11/10 06:11:31;;;;;;;12.80;2.28;;;;;;;8.29;100.00;99648.88;5255409;28;20027;-71
2023/11/10 06:14:02;;;;;;;6.63;2.40;;;;;;;8.30;100.00;99631.81;5249696;28;20028;-71
2023/11/10 06:16:33;;;;;;;9.90;2.10;;;;;;;8.46;100.00;99641.56;5256192;28;20024;-71
2023/11/10 06:19:04;;;;;;;8.75;1.73;;;;;;;8.41;100.00;99642.09;5257255;28;20439;-71
2023/11/10 06:21:35;;;;;;;6.47;1.80;;;;;;;8.54;100.00;99633.47;5246745;28;20024;-71
2023/11/10 06:24:06;;;;;;;7.47;1.80;;;;;;;8.40;100.00;99634.25;5246558;28;20469;-71
2023/11/10 06:26:36;;;;;;;9.07;1.92;;;;;;;8.40;100.00;99627.06;5253189;28;20024;-71
2023/11/10 06:29:07;;;;;;;8.70;1.90;;;;;;;8.45;100.00;99621.19;5245776;28;20074;-71
2023/11/10 06:31:38;;;;;;;7.85;1.85;;;;;;;8.42;100.00;99627.72;5250508;28;20028;-71
2023/11/10 06:34:08;;;;;;;7.63;2.08;;;;;;;8.52;100.00;99632.78;5254398;28;20110;-71
2023/11/10 06:36:39;;;;;;;5.13;1.70;;;;;;;8.45;100.00;99616.66;5254934;28;20035;-71
2023/11/10 06:39:09;;;;;;;13.35;2.13;;;;;;;8.53;100.00;99613.94;5251486;28;20032;-71
2023/11/10 06:41:40;;;;;;;13.68;1.63;;;;;;;8.57;100.00;99614.38;5260389;28;23828;-71
2023/11/10 06:44:18;;;;;;;11.18;1.77;;;;;;;8.67;100.00;99619.44;5252335;28;20032;-71
2023/11/10 06:46:49;;;;;;;11.80;2.13;;;;;;;8.56;100.00;99615.38;5254585;28;20477;-71
2023/11/10 06:49:19;;;;;;;7.15;1.67;;;;;;;8.46;100.00;99626.34;5249696;28;20082;-71
2023/11/10 06:51:49;;;;;;;9.10;1.90;;;;;;;8.63;100.00;99629.66;5248761;28;20380;-71
2023/11/10 06:54:20;;;;;;;16.00;2.17;;;;;;;8.68;100.00;99629.94;5256797;28;20429;-71
2023/11/10 06:56:53;;;;;;;10.65;1.92;;;;;;;8.64;100.00;99622.50;5262756;28;20421;-71
2023/11/10 06:59:25;;;;;;;10.02;1.65;;;;;;;8.69;100.00;99617.44;5251627;28;20025;-71
2023/11/10 07:01:57;;;;;;;15.05;1.95;;;;;;;8.78;100.00;99618.97;5253873;28;20478;-71
2023/11/10 07:04:27;;;;;;;6.75;1.65;;;;;;;8.75;100.00;99616.69;5252351;28;20050;-71
2023/11/10 07:06:58;;;;;;;8.65;1.75;;;;;;;8.91;100.00;99621.03;5252110;28;20047;-71
2023/11/10 07:09:28;;;;;;;9.05;1.55;;;;;;;8.77;100.00;99618.16;5255323;28;20119;-71
2023/11/10 07:11:59;;;;;;;17.08;2.05;;;;;;;8.67;100.00;99619.44;5252045;28;20069;-71
2023/11/10 07:14:30;;;;;;;8.07;1.75;;;;;;;8.97;100.00;99615.75;5248117;28;20035;-71
2023/11/10 07:17:01;;;;;;;8.80;1.30;;;;;;;8.88;100.00;99621.38;5244382;28;20028;-71
2023/11/10 07:19:32;;;;;;;19.38;2.10;;;;;;;9.10;100.00;99608.94;5256317;28;20029;-71
2023/11/10 07:22:03;;;;;;;9.40;1.80;;;;;;;9.17;100.00;99616.00;5258523;28;20039;-71
2023/11/10 07:24:34;;;;;;;9.98;1.90;;;;;;;9.12;100.00;99615.72;5255397;28;20492;-71
2023/11/10 07:27:06;;;;;;;16.67;2.40;;;;;;;9.17;100.00;99623.19;5258551;28;20028;-71
2023/11/10 07:29:37;;;;;;;11.85;1.70;;;;;;;9.14;100.00;99616.41;5256288;28;20119;-71
2023/11/10 07:32:07;;;;;;;7.22;1.38;;;;;;;9.06;100.00;99613.81;5264366;28;20112;-71
2023/11/10 07:34:38;;;;;;;9.07;1.80;;;;;;;9.11;100.00;99623.97;5257497;28;20032;-70
2023/11/10 07:37:08;;;;;;;12.88;1.70;;;;;;;8.97;100.00;99617.59;5256776;28;20035;-71
2023/11/10 07:39:40;;;;;;;5.90;2.00;;;;;;;9.14;100.00;99616.41;5260718;28;20020;-71
2023/11/10 07:42:10;;;;;;;8.15;1.63;;;;;;;9.28;100.00;99623.53;5258356;28;20489;-71
2023/11/10 07:44:41;;;;;;;9.90;1.80;;;;;;;9.32;100.00;99611.44;5256891;28;20043;-71
2023/11/10 07:47:11;;;;;;;11.93;1.90;;;;;;;9.29;100.00;99621.72;5233590;28;20027;-71
2023/11/10 07:49:42;;;;;;;11.57;1.98;;;;;;;9.24;100.00;99626.81;5257959;28;20036;-71
2023/11/10 07:52:12;;;;;;;11.70;2.22;;;;;;;9.11;100.00;99622.09;5256664;28;20022;-71
2023/11/10 07:54:43;;;;;;;12.95;2.15;;;;;;;9.20;100.00;99622.84;5254714;28;20397;-71
2023/11/10 07:57:14;;;;;;;11.52;1.63;;;;;;;9.20;100.00;99636.22;5255626;28;20497;-71
2023/11/10 07:59:45;;;;;;;13.77;2.17;;;;;;;9.15;100.00;99625.25;5262074;28;20028;-71
2023/11/10 08:02:18;;;;;;;11.40;2.03;;;;;;;9.16;100.00;99624.22;5262238;28;20103;-72
2023/11/10 08:04:49;;;;;;;13.23;2.10;;;;;;;9.28;100.00;99631.56;5253982;28;20044;-71
2023/11/10 08:07:22;;;;;;;15.38;2.25;;;;;;;9.23;100.00;99630.47;5257471;28;20047;-71
2023/11/10 08:09:53;;;;;;;14.48;1.95;;;;;;;9.08;100.00;99620.63;5254396;28;20103;-71
2023/11/10 08:12:23;;;;;;;12.50;2.20;;;;;;;9.13;100.00;99629.94;5249494;28;20099;-72
2023/11/10 08:14:55;;;;;;;11.50;1.85;;;;;;;9.03;100.00;99625.69;5253316;28;20122;-71
2023/11/10 08:17:27;;;;;;;7.55;1.73;;;;;;;9.16;100.00;99625.06;5244728;28;20025;-72
2023/11/10 08:19:57;;;;;;;4.43;1.55;;;;;;;9.18;100.00;99619.50;5252007;28;20021;-72
2023/11/10 08:22:30;;;;;;;12.68;1.88;;;;;;;9.24;100.00;99624.97;5256892;28;20035;-72
2023/11/10 08:25:03;;;;;;;11.90;2.13;;;;;;;9.16;100.00;99621.56;5250721;28;20048;-72
2023/11/10 08:27:33;;;;;;;6.30;1.42;;;;;;;9.21;100.00;99619.13;5249303;28;20107;-72
2023/11/10 08:30:09;;;;;;;14.00;1.80;;;;;;;9.29;100.00;99611.03;5259447;28;20022;-72
2023/11/10 08:32:40;;;;;;;6.63;1.60;;;;;;;9.14;100.00;99612.91;5251223;28;20047;-72
2023/11/10 08:35:10;;;;;;;11.70;1.80;;;;;;;9.19;100.00;99597.09;5254039;28;20385;-72
2023/11/10 08:37:41;;;;;;;6.40;1.63;;;;;;;9.12;100.00;99602.34;5253214;28;20559;-72
2023/11/10 08:40:12;;;;;;;16.50;2.08;;;;;;;9.09;100.00;99597.41;5254294;28;20042;-72
2023/11/10 08:42:43;;;;;;;6.70;1.67;;;;;;;9.20;100.00;99602.25;5260986;28;20028;-72
2023/11/10 08:45:14;;;;;;;7.72;1.88;;;;;;;9.13;100.00;99592.47;5256016;28;20619;-72
2023/11/10 08:47:45;;;;;;;7.40;1.50;;;;;;;9.06;100.00;99598.59;5254572;28;20507;-72
2023/11/10 08:50:16;;;;;;;10.02;1.90;;;;;;;9.09;100.00;99600.06;5251282;28;20024;-72
2023/11/10 08:52:47;;;;;;;6.72;1.50;;;;;;;8.95;100.00;99587.53;5255722;28;20370;-72
2023/11/10 08:55:20;;;;;;;12.48;1.60;;;;;;;8.93;100.00;99603.75;5259401;28;20024;-72
2023/11/10 08:57:51;;;;;;;6.10;1.52;;;;;;;8.97;100.00;99607.72;5249985;28;20039;-72
2023/11/10 09:00:22;;;;;;;7.63;1.80;;;;;;;9.00;100.00;99603.88;5257426;28;20493;-72
2023/11/10 09:02:55;;;;;;;8.52;1.85;;;;;;;8.86;100.00;99591.31;5256613;28;20077;-72
2023/11/10 09:05:26;;;;;;;9.40;1.80;;;;;;;8.92;100.00;99599.44;5255343;28;20707;-72
2023/11/10 09:07:56;;;;;;;13.45;1.88;;;;;;;9.06;100.00;99601.25;5247136;28;20048;-72
2023/11/10 09:10:27;;;;;;;8.65;1.80;;;;;;;8.97;100.00;99605.03;5255995;28;20694;-72
2023/11/10 09:12:57;;;;;;;10.70;1.98;;;;;;;9.16;100.00;99600.16;5251260;28;20644;-72
2023/11/10 09:15:29;;;;;;;5.18;1.40;;;;;;;8.95;100.00;99593.72;5259345;28;20020;-72
2023/11/10 09:17:59;;;;;;;5.25;1.33;;;;;;;9.11;100.00;99594.53;5260984;28;20023;-72
2023/11/10 09:20:30;;;;;;;12.60;2.05;;;;;;;9.03;100.00;99601.63;5258443;28;20036;-72
2023/11/10 09:23:00;;;;;;;5.47;1.40;;;;;;;9.19;100.00;99597.94;5254292;28;20023;-72
2023/11/10 09:25:31;;;;;;;12.32;2.83;;;;;;;9.08;100.00;99593.88;5256889;28;20101;-72
2023/11/10 09:28:01;;;;;;;4.65;1.63;;;;;;;9.20;100.00;99590.72;5262763;28;20470;-72
2023/11/10 09:30:33;;;;;;;12.15;1.98;;;;;;;9.10;100.00;99599.06;5261930;28;20021;-72
2023/11/10 09:33:03;;;;;;;7.22;2.03;;;;;;;9.11;100.00;99583.81;5259584;28;20093;-72
2023/11/10 09:35:36;;;;;;;12.68;1.67;;;;;;;9.24;100.00;99592.03;5264305;28;20023;-72
2023/11/10 09:38:06;;;;;;;6.75;1.58;;;;;;;9.26;100.00;99587.28;5253659;28;20021;-72
2023/11/10 09:40:37;;;;;;;11.77;2.35;;;;;;;9.31;100.00;99590.22;5251203;28;20124;-72
2023/11/10 09:43:08;;;;;;;11.43;1.55;;;;;;;9.37;100.00;99585.97;5254994;28;20393;-71
2023/11/10 09:45:46;;;;;;;3.92;1.60;;;;;;;9.35;100.00;99591.53;5256370;28;20032;-72
2023/11/10 09:48:19;;;;;;;11.52;2.35;;;;;;;9.49;100.00;99585.31;5257091;28;20024;-72
2023/11/10 09:50:50;;;;;;;7.57;2.05;;;;;;;9.41;100.00;99585.41;5257948;28;20031;-72
2023/11/10 09:53:23;;;;;;;8.23;1.52;;;;;;;9.41;100.00;99585.41;5255787;28;20405;-72
2023/11/10 09:55:54;;;;;;;4.72;1.20;;;;;;;9.40;100.00;99572.22;5259443;28;20035;-72
2023/11/10 09:58:27;;;;;;;10.00;1.48;;;;;;;9.48;100.00;99582.78;5250768;28;20123;-71
2023/11/10 10:00:58;;;;;;;5.30;1.40;;;;;;;9.50;100.00;99581.59;5250882;28;20473;-71
2023/11/10 10:03:28;;;;;;;8.40;3.08;;;;;;;9.77;100.00;99580.00;5250232;28;20050;-72
2023/11/10 10:05:59;;;;;;;4.85;1.63;;;;;;;9.92;100.00;99579.09;5253955;28;20020;-71
2023/11/10 10:08:30;;;;;;;10.38;1.55;;;;;;;9.99;100.00;99566.59;5256808;28;20051;-71
2023/11/10 10:11:02;;;;;;;5.60;1.25;;;;;;;9.89;100.00;99569.63;5252698;28;20024;-72
2023/11/10 10:13:32;;;;;;;9.82;1.85;;;;;;;10.10;100.00;99568.75;5256568;28;20025;-71
2023/11/10 10:16:10;;;;;;;3.22;0.90;;;;;;;10.31;100.00;99578.63;5252123;28;20048;-71
2023/11/10 10:18:41;;;;;;;5.72;1.38;;;;;;;10.31;100.00;99560.69;5250524;28;20052;-72
2023/11/10 10:21:12;;;;;;;8.18;1.20;;;;;;;10.24;100.00;99564.34;5258493;28;20029;-71
2023/11/10 10:23:44;;;;;;;4.45;1.13;;;;;;;10.23;100.00;99554.59;5257352;28;20031;-71
2023/11/10 10:26:15;;;;;;;6.55;1.38;;;;;;;10.36;100.00;99568.97;5257534;28;20024;-71
2023/11/10 10:28:46;;;;;;;5.78;1.00;;;;;;;10.30;100.00;99571.63;5252731;28;20029;-72
2023/11/10 10:31:17;;;;;;;6.05;1.13;;;;;;;10.35;100.00;99571.84;5258826;28;20030;-71
2023/11/10 10:33:48;;;;;;;9.55;1.40;;;;;;;10.47;100.00;99575.63;5261872;28;20027;-71
2023/11/10 10:36:19;;;;;;;4.50;0.98;;;;;;;10.26;100.00;99581.91;5250162;28;20059;-72
2023/11/10 10:38:53;;;;;;;2.80;1.08;;;;;;;10.24;100.00;99577.72;5258031;28;20412;-71
2023/11/10 10:41:25;;;;;;;2.83;0.70;;;;;;;10.07;100.00;99582.53;5259184;28;20052;-71
2023/11/10 10:43:56;;;;;;;2.70;1.38;;;;;;;10.18;100.00;99581.16;5259897;28;20020;-71
2023/11/10 10:46:28;;;;;;;4.78;1.25;;;;;;;10.05;100.00;99579.22;5259245;28;20062;-71
2023/11/10 10:48:59;;;;;;;3.13;0.68;;;;;;;9.93;100.00;99578.91;5261748;28;20035;-71
2023/11/10 10:51:36;;;;;;;1.40;0.70;;;;;;;10.02;100.00;99569.72;5266190;28;20046;-71
2023/11/10 10:54:08;;;;;;;4.03;1.00;;;;;;;9.93;100.00;99578.06;5260737;28;20024;-71
2023/11/10 10:56:39;;;;;;;3.13;0.85;;;;;;;10.03;100.00;99574.03;5258153;28;20028;-72
2023/11/10 10:59:10;;;;;;;4.97;0.70;;;;;;;9.78;100.00;99559.41;5259080;28;20358;-72
2023/11/10 11:01:44;;;;;;;4.97;1.20;;;;;;;9.81;100.00;99567.06;5260627;28;20024;-72
2023/11/10 11:04:29;;;;;;;4.68;1.10;;;;;;;9.97;100.00;99564.09;5257287;28;20393;-72
2023/11/10 11:07:38;;;;;;;6.53;1.23;;;;;;;9.84;100.00;99572.03;5250708;28;20035;-72
2023/11/10 11:10:26;;;;;;;5.07;0.93;;;;;;;9.83;100.00;99573.03;5258744;28;20020;-72
2023/11/10 11:13:06;;;;;;;3.38;1.00;;;;;;;9.86;100.00;99576.16;5252127;28;20035;-72
2023/11/10 11:16:02;;;;;;;3.85;0.95;;;;;;;9.99;100.00;99563.91;5253907;28;20028;-72
2023/11/10 11:19:01;;;;;;;3.25;1.02;;;;;;;9.80;100.00;99571.59;5258001;28;20032;-72
2023/11/10 11:21:31;;;;;;;3.40;0.88;;;;;;;9.92;100.00;99571.06;5264238;28;20389;-72
2023/11/10 11:24:06;;;;;;;3.05;0.68;;;;;;;10.14;100.00;99564.66;5259660;28;20032;-72
2023/11/10 11:26:37;;;;;;;4.00;0.98;;;;;;;10.11;100.00;99560.50;5254184;28;20032;-72
2023/11/10 11:29:09;;;;;;;7.40;1.40;;;;;;;9.94;100.00;99561.84;5268300;28;20026;-72
2023/11/10 11:31:46;;;;;;;8.90;1.30;;;;;;;10.03;100.00;99563.31;5255932;28;20121;-72
2023/11/10 11:34:19;;;;;;;3.60;1.00;;;;;;;10.05;100.00;99561.28;5252572;28;20085;-72
2023/11/10 11:36:49;;;;;;;7.95;1.95;;;;;;;10.09;100.00;99559.03;5252982;28;20062;-72
2023/11/10 11:39:22;;;;;;;2.35;0.80;;;;;;;9.98;100.00;99572.97;5260389;28;20102;-72
2023/11/10 11:41:54;;;;;;;6.18;1.10;;;;;;;10.02;100.00;99567.03;5250522;28;20033;-72
2023/11/10 11:44:30;;;;;;;7.80;1.13;;;;;;;9.95;100.00;99568.84;5254590;28;20047;-72
2023/11/10 11:47:07;;;;;;;4.90;0.55;;;;;;;10.02;100.00;99552.81;5253839;28;20058;-72
2023/11/10 11:49:39;;;;;;;5.40;1.08;;;;;;;10.01;100.00;99551.97;5259630;28;20443;-72
2023/11/10 11:52:11;;;;;;;7.88;1.60;;;;;;;10.04;100.00;99553.44;5260088;28;20028;-72